sensor_id;sensor_type;location;lat;lon;timestamp;P1;durP1;ratioP1;P2;durP2;ratioP2
15624;SDS011;7912;51.376;6.126;2023-04-24T00:01:30;6.53;;;4.40;;
15624;SDS011;7912;51.376;6.126;2023-04-24T00:03:58;4.70;;;4.20;;
15624;SDS011;7912;51.376;6.126;2023-04-24T00:06:26;4.93;;;4.20;;
15624;SDS011;7912;51.376;6.126;2023-04-24T00:08:59;4.33;;;3.87;;
15624;SDS011;7912;51.376;6.126;2023-04-24T00:11:27;4.30;;;3.90;;
15624;SDS011;7912;51.376;6.126;2023-04-24T00:13:56;4.50;;;3.67;;
15624;SDS011;7912;51.376;6.126;2023-04-24T00:16:23;4.80;;;3.67;;
15624;SDS011;7912;51.376;6.126;2023-04-24T00:18:51;4.10;;;3.30;;
15624;SDS011;7912;51.376;6.126;2023-04-24T00:21:22;4.07;;;3.67;;
15624;SDS011;7912;51.376;6.126;2023-04-24T00:23:52;3.83;;;3.47;;
15624;SDS011;7912;51.376;6.126;2023-04-24T00:26:20;4.50;;;3.60;;
15624;SDS011;7912;51.376;6.126;2023-04-24T00:28:47;3.93;;;3.53;;
15624;SDS011;7912;51.376;6.126;2023-04-24T00:31:17;4.53;;;3.97;;
15624;SDS011;7912;51.376;6.126;2023-04-24T00:33:45;5.23;;;4.20;;
15624;SDS011;7912;51.376;6.126;2023-04-24T00:36:12;4.50;;;4.10;;
15624;SDS011;7912;51.376;6.126;2023-04-24T00:38:40;6.90;;;4.50;;
15624;SDS011;7912;51.376;6.126;2023-04-24T00:41:07;5.43;;;4.93;;
15624;SDS011;7912;51.376;6.126;2023-04-24T00:43:34;5.30;;;4.80;;
15624;SDS011;7912;51.376;6.126;2023-04-24T00:46:02;6.93;;;5.53;;
15624;SDS011;7912;51.376;6.126;2023-04-24T00:48:30;5.90;;;4.90;;
15624;SDS011;7912;51.376;6.126;2023-04-24T00:50:58;6.60;;;4.97;;
15624;SDS011;7912;51.376;6.126;2023-04-24T00:53:25;7.27;;;5.60;;
15624;SDS011;7912;51.376;6.126;2023-04-24T00:55:53;7.30;;;5.60;;
15624;SDS011;7912;51.376;6.126;2023-04-24T00:58:20;5.20;;;4.70;;
15624;SDS011;7912;51.376;6.126;2023-04-24T01:00:48;6.93;;;6.00;;
15624;SDS011;7912;51.376;6.126;2023-04-24T01:03:20;6.90;;;5.70;;
15624;SDS011;7912;51.376;6.126;2023-04-24T01:05:52;6.47;;;5.70;;
15624;SDS011;7912;51.376;6.126;2023-04-24T01:08:25;8.80;;;6.27;;
15624;SDS011;7912;51.376;6.126;2023-04-24T01:10:54;7.03;;;5.57;;
15624;SDS011;7912;51.376;6.126;2023-04-24T01:13:23;7.30;;;5.90;;
15624;SDS011;7912;51.376;6.126;2023-04-24T01:15:51;6.60;;;5.90;;
15624;SDS011;7912;51.376;6.126;2023-04-24T01:18:21;6.70;;;5.57;;
15624;SDS011;7912;51.376;6.126;2023-04-24T01:20:49;8.23;;;6.43;;
15624;SDS011;7912;51.376;6.126;2023-04-24T01:23:20;6.47;;;5.87;;
15624;SDS011;7912;51.376;6.126;2023-04-24T01:25:48;7.97;;;6.60;;
15624;SDS011;7912;51.376;6.126;2023-04-24T01:31:03;8.60;;;6.17;;
15624;SDS011;7912;51.376;6.126;2023-04-24T01:33:31;7.10;;;6.37;;
15624;SDS011;7912;51.376;6.126;2023-04-24T01:35:59;8.50;;;6.57;;
15624;SDS011;7912;51.376;6.126;2023-04-24T01:38:27;8.43;;;6.60;;
15624;SDS011;7912;51.376;6.126;2023-04-24T01:40:54;8.60;;;7.50;;
15624;SDS011;7912;51.376;6.126;2023-04-24T01:43:22;8.93;;;7.20;;
15624;SDS011;7912;51.376;6.126;2023-04-24T01:45:50;8.03;;;6.50;;
15624;SDS011;7912;51.376;6.126;2023-04-24T01:48:17;9.20;;;7.73;;
15624;SDS011;7912;51.376;6.126;2023-04-24T01:50:45;9.17;;;7.70;;
15624;SDS011;7912;51.376;6.126;2023-04-24T01:53:13;10.50;;;8.60;;
15624;SDS011;7912;51.376;6.126;2023-04-24T01:55:40;8.20;;;7.37;;
15624;SDS011;7912;51.376;6.126;2023-04-24T01:58:08;9.70;;;8.60;;
15624;SDS011;7912;51.376;6.126;2023-04-24T02:00:35;10.13;;;8.73;;
15624;SDS011;7912;51.376;6.126;2023-04-24T02:03:03;10.17;;;8.77;;
15624;SDS011;7912;51.376;6.126;2023-04-24T02:05:30;11.00;;;9.07;;
15624;SDS011;7912;51.376;6.126;2023-04-24T02:07:58;13.53;;;9.63;;
15624;SDS011;7912;51.376;6.126;2023-04-24T02:10:25;12.40;;;9.60;;
15624;SDS011;7912;51.376;6.126;2023-04-24T02:12:53;11.73;;;9.30;;
15624;SDS011;7912;51.376;6.126;2023-04-24T02:15:20;13.33;;;9.20;;
15624;SDS011;7912;51.376;6.126;2023-04-24T02:17:47;10.83;;;9.40;;
15624;SDS011;7912;51.376;6.126;2023-04-24T02:20:15;15.33;;;9.93;;
15624;SDS011;7912;51.376;6.126;2023-04-24T02:22:42;11.13;;;9.70;;
15624;SDS011;7912;51.376;6.126;2023-04-24T02:25:09;11.10;;;9.93;;
15624;SDS011;7912;51.376;6.126;2023-04-24T02:27:37;11.80;;;9.80;;
15624;SDS011;7912;51.376;6.126;2023-04-24T02:30:04;11.53;;;9.90;;
15624;SDS011;7912;51.376;6.126;2023-04-24T02:32:32;11.93;;;10.23;;
15624;SDS011;7912;51.376;6.126;2023-04-24T02:38:05;13.30;;;9.80;;
15624;SDS011;7912;51.376;6.126;2023-04-24T02:40:32;11.90;;;9.73;;
15624;SDS011;7912;51.376;6.126;2023-04-24T02:42:59;14.90;;;10.30;;
15624;SDS011;7912;51.376;6.126;2023-04-24T02:45:27;11.10;;;9.90;;
15624;SDS011;7912;51.376;6.126;2023-04-24T02:47:54;12.60;;;10.27;;
15624;SDS011;7912;51.376;6.126;2023-04-24T02:50:22;12.20;;;10.07;;
15624;SDS011;7912;51.376;6.126;2023-04-24T02:52:49;13.10;;;10.57;;
15624;SDS011;7912;51.376;6.126;2023-04-24T02:55:17;12.57;;;9.77;;
15624;SDS011;7912;51.376;6.126;2023-04-24T02:57:44;10.57;;;9.47;;
15624;SDS011;7912;51.376;6.126;2023-04-24T03:00:12;12.53;;;10.43;;
15624;SDS011;7912;51.376;6.126;2023-04-24T03:02:39;10.60;;;9.50;;
15624;SDS011;7912;51.376;6.126;2023-04-24T03:05:07;11.60;;;10.30;;
15624;SDS011;7912;51.376;6.126;2023-04-24T03:07:35;13.00;;;10.60;;
15624;SDS011;7912;51.376;6.126;2023-04-24T03:10:03;12.77;;;9.87;;
15624;SDS011;7912;51.376;6.126;2023-04-24T03:12:32;10.73;;;9.50;;
15624;SDS011;7912;51.376;6.126;2023-04-24T03:14:59;11.63;;;10.17;;
15624;SDS011;7912;51.376;6.126;2023-04-24T03:17:27;11.60;;;9.73;;
15624;SDS011;7912;51.376;6.126;2023-04-24T03:19:56;13.83;;;9.60;;
15624;SDS011;7912;51.376;6.126;2023-04-24T03:22:24;12.80;;;10.00;;
15624;SDS011;7912;51.376;6.126;2023-04-24T03:24:51;10.40;;;9.17;;
15624;SDS011;7912;51.376;6.126;2023-04-24T03:27:18;12.50;;;9.60;;
15624;SDS011;7912;51.376;6.126;2023-04-24T03:29:46;11.90;;;9.17;;
15624;SDS011;7912;51.376;6.126;2023-04-24T03:32:13;11.27;;;10.10;;
15624;SDS011;7912;51.376;6.126;2023-04-24T03:34:41;10.40;;;8.93;;
15624;SDS011;7912;51.376;6.126;2023-04-24T03:37:08;11.83;;;9.07;;
15624;SDS011;7912;51.376;6.126;2023-04-24T03:39:35;13.07;;;10.03;;
15624;SDS011;7912;51.376;6.126;2023-04-24T03:42:03;11.00;;;8.90;;
15624;SDS011;7912;51.376;6.126;2023-04-24T03:44:30;10.63;;;8.17;;
15624;SDS011;7912;51.376;6.126;2023-04-24T03:46:57;11.43;;;8.80;;
15624;SDS011;7912;51.376;6.126;2023-04-24T03:49:25;9.70;;;8.60;;
15624;SDS011;7912;51.376;6.126;2023-04-24T03:51:53;9.13;;;8.23;;
15624;SDS011;7912;51.376;6.126;2023-04-24T03:54:20;10.17;;;8.23;;
15624;SDS011;7912;51.376;6.126;2023-04-24T03:56:47;10.17;;;9.17;;
15624;SDS011;7912;51.376;6.126;2023-04-24T03:59:15;11.63;;;8.97;;
15624;SDS011;7912;51.376;6.126;2023-04-24T04:01:42;10.43;;;8.63;;
15624;SDS011;7912;51.376;6.126;2023-04-24T04:04:10;9.70;;;8.70;;
15624;SDS011;7912;51.376;6.126;2023-04-24T04:06:37;9.70;;;8.73;;
15624;SDS011;7912;51.376;6.126;2023-04-24T04:09:09;8.47;;;7.67;;
15624;SDS011;7912;51.376;6.126;2023-04-24T04:11:37;8.80;;;7.93;;
15624;SDS011;7912;51.376;6.126;2023-04-24T04:14:04;8.93;;;7.20;;
15624;SDS011;7912;51.376;6.126;2023-04-24T04:16:32;8.53;;;7.73;;
15624;SDS011;7912;51.376;6.126;2023-04-24T04:18:59;8.07;;;7.27;;
15624;SDS011;7912;51.376;6.126;2023-04-24T04:21:28;7.87;;;7.03;;
15624;SDS011;7912;51.376;6.126;2023-04-24T04:23:57;8.00;;;6.37;;
15624;SDS011;7912;51.376;6.126;2023-04-24T04:26:25;7.73;;;6.83;;
15624;SDS011;7912;51.376;6.126;2023-04-24T04:28:52;7.47;;;6.77;;
15624;SDS011;7912;51.376;6.126;2023-04-24T04:31:20;7.63;;;6.63;;
15624;SDS011;7912;51.376;6.126;2023-04-24T04:33:48;8.00;;;6.60;;
15624;SDS011;7912;51.376;6.126;2023-04-24T04:36:15;7.53;;;6.83;;
15624;SDS011;7912;51.376;6.126;2023-04-24T04:38:43;7.93;;;7.13;;
15624;SDS011;7912;51.376;6.126;2023-04-24T04:41:11;6.77;;;6.07;;
15624;SDS011;7912;51.376;6.126;2023-04-24T04:43:38;7.63;;;6.77;;
15624;SDS011;7912;51.376;6.126;2023-04-24T04:46:07;7.23;;;6.53;;
15624;SDS011;7912;51.376;6.126;2023-04-24T04:48:34;6.73;;;6.20;;
15624;SDS011;7912;51.376;6.126;2023-04-24T04:51:02;7.37;;;6.67;;
15624;SDS011;7912;51.376;6.126;2023-04-24T04:53:29;8.67;;;7.27;;
15624;SDS011;7912;51.376;6.126;2023-04-24T04:55:56;6.47;;;5.87;;
15624;SDS011;7912;51.376;6.126;2023-04-24T04:58:24;7.17;;;6.47;;
15624;SDS011;7912;51.376;6.126;2023-04-24T05:00:51;7.00;;;6.30;;
15624;SDS011;7912;51.376;6.126;2023-04-24T05:03:19;7.83;;;7.03;;
15624;SDS011;7912;51.376;6.126;2023-04-24T05:05:48;7.40;;;6.60;;
15624;SDS011;7912;51.376;6.126;2023-04-24T05:08:16;7.67;;;6.87;;
15624;SDS011;7912;51.376;6.126;2023-04-24T05:10:52;8.20;;;7.37;;
15624;SDS011;7912;51.376;6.126;2023-04-24T05:13:19;7.00;;;6.37;;
15624;SDS011;7912;51.376;6.126;2023-04-24T05:16:01;8.10;;;7.27;;
15624;SDS011;7912;51.376;6.126;2023-04-24T05:18:28;7.03;;;6.33;;
15624;SDS011;7912;51.376;6.126;2023-04-24T05:20:56;7.97;;;7.17;;
15624;SDS011;7912;51.376;6.126;2023-04-24T05:23:24;7.50;;;6.80;;
15624;SDS011;7912;51.376;6.126;2023-04-24T05:25:51;7.63;;;6.80;;
15624;SDS011;7912;51.376;6.126;2023-04-24T05:28:19;8.23;;;7.37;;
15624;SDS011;7912;51.376;6.126;2023-04-24T05:30:47;7.33;;;6.63;;
15624;SDS011;7912;51.376;6.126;2023-04-24T05:33:14;8.00;;;7.20;;
15624;SDS011;7912;51.376;6.126;2023-04-24T05:35:41;7.37;;;6.67;;
15624;SDS011;7912;51.376;6.126;2023-04-24T05:38:13;8.00;;;7.17;;
15624;SDS011;7912;51.376;6.126;2023-04-24T05:40:43;8.00;;;6.80;;
15624;SDS011;7912;51.376;6.126;2023-04-24T05:51:31;7.60;;;6.80;;
15624;SDS011;7912;51.376;6.126;2023-04-24T05:53:59;7.47;;;6.37;;
15624;SDS011;7912;51.376;6.126;2023-04-24T05:56:29;6.60;;;6.00;;
15624;SDS011;7912;51.376;6.126;2023-04-24T05:58:57;7.73;;;6.27;;
15624;SDS011;7912;51.376;6.126;2023-04-24T06:04:11;6.23;;;5.63;;
15624;SDS011;7912;51.376;6.126;2023-04-24T06:10:50;5.37;;;4.87;;
15624;SDS011;7912;51.376;6.126;2023-04-24T06:20:10;4.97;;;4.40;;
15624;SDS011;7912;51.376;6.126;2023-04-24T06:22:38;4.37;;;3.97;;
15624;SDS011;7912;51.376;6.126;2023-04-24T06:25:06;4.20;;;3.40;;
15624;SDS011;7912;51.376;6.126;2023-04-24T06:27:34;3.80;;;3.50;;
15624;SDS011;7912;51.376;6.126;2023-04-24T06:30:02;3.30;;;3.00;;
15624;SDS011;7912;51.376;6.126;2023-04-24T06:32:30;2.90;;;2.70;;
15624;SDS011;7912;51.376;6.126;2023-04-24T06:34:59;2.53;;;2.27;;
15624;SDS011;7912;51.376;6.126;2023-04-24T06:37:26;3.10;;;2.57;;
15624;SDS011;7912;51.376;6.126;2023-04-24T06:39:56;2.30;;;2.10;;
15624;SDS011;7912;51.376;6.126;2023-04-24T06:42:31;2.53;;;2.10;;
15624;SDS011;7912;51.376;6.126;2023-04-24T06:45:04;2.97;;;2.17;;
15624;SDS011;7912;51.376;6.126;2023-04-24T06:47:46;2.20;;;2.00;;
15624;SDS011;7912;51.376;6.126;2023-04-24T06:50:45;2.40;;;2.20;;
15624;SDS011;7912;51.376;6.126;2023-04-24T06:53:25;2.30;;;2.10;;
15624;SDS011;7912;51.376;6.126;2023-04-24T06:56:06;2.23;;;1.93;;
15624;SDS011;7912;51.376;6.126;2023-04-24T06:59:27;3.73;;;2.03;;
15624;SDS011;7912;51.376;6.126;2023-04-24T07:01:57;2.27;;;1.90;;
15624;SDS011;7912;51.376;6.126;2023-04-24T07:04:24;2.00;;;1.80;;
15624;SDS011;7912;51.376;6.126;2023-04-24T07:07:14;2.00;;;1.80;;
15624;SDS011;7912;51.376;6.126;2023-04-24T07:09:46;1.73;;;1.50;;
15624;SDS011;7912;51.376;6.126;2023-04-24T07:12:18;3.93;;;1.70;;
15624;SDS011;7912;51.376;6.126;2023-04-24T07:18:23;2.00;;;1.77;;
15624;SDS011;7912;51.376;6.126;2023-04-24T07:21:04;2.33;;;1.80;;
15624;SDS011;7912;51.376;6.126;2023-04-24T07:23:58;3.50;;;1.97;;
15624;SDS011;7912;51.376;6.126;2023-04-24T07:27:09;2.43;;;2.00;;
15624;SDS011;7912;51.376;6.126;2023-04-24T07:29:56;2.77;;;2.10;;
15624;SDS011;7912;51.376;6.126;2023-04-24T07:32:23;5.00;;;2.40;;
15624;SDS011;7912;51.376;6.126;2023-04-24T07:35:01;2.47;;;2.27;;
15624;SDS011;7912;51.376;6.126;2023-04-24T07:37:39;2.60;;;2.27;;
15624;SDS011;7912;51.376;6.126;2023-04-24T07:40:17;2.23;;;2.03;;
15624;SDS011;7912;51.376;6.126;2023-04-24T07:42:56;2.80;;;2.00;;
15624;SDS011;7912;51.376;6.126;2023-04-24T07:45:33;2.33;;;2.13;;
15624;SDS011;7912;51.376;6.126;2023-04-24T07:48:08;2.63;;;2.27;;
15624;SDS011;7912;51.376;6.126;2023-04-24T07:50:54;2.73;;;2.20;;
15624;SDS011;7912;51.376;6.126;2023-04-24T07:53:36;2.97;;;2.10;;
15624;SDS011;7912;51.376;6.126;2023-04-24T07:56:24;1.87;;;1.77;;
15624;SDS011;7912;51.376;6.126;2023-04-24T07:58:56;2.57;;;1.90;;
15624;SDS011;7912;51.376;6.126;2023-04-24T08:01:42;2.57;;;2.00;;
15624;SDS011;7912;51.376;6.126;2023-04-24T08:04:41;5.17;;;4.00;;
15624;SDS011;7912;51.376;6.126;2023-04-24T08:07:12;5.43;;;4.83;;
15624;SDS011;7912;51.376;6.126;2023-04-24T08:09:52;8.33;;;7.03;;
15624;SDS011;7912;51.376;6.126;2023-04-24T08:12:27;8.10;;;7.13;;
15624;SDS011;7912;51.376;6.126;2023-04-24T08:15:27;8.70;;;7.80;;
15624;SDS011;7912;51.376;6.126;2023-04-24T08:17:58;8.03;;;7.13;;
15624;SDS011;7912;51.376;6.126;2023-04-24T08:20:26;7.13;;;5.93;;
15624;SDS011;7912;51.376;6.126;2023-04-24T08:22:53;5.90;;;4.93;;
15624;SDS011;7912;51.376;6.126;2023-04-24T08:25:21;6.23;;;5.40;;
15624;SDS011;7912;51.376;6.126;2023-04-24T08:27:51;6.37;;;5.63;;
15624;SDS011;7912;51.376;6.126;2023-04-24T08:30:24;6.80;;;5.83;;
15624;SDS011;7912;51.376;6.126;2023-04-24T08:32:56;6.57;;;5.93;;
15624;SDS011;7912;51.376;6.126;2023-04-24T08:35:26;7.60;;;6.40;;
15624;SDS011;7912;51.376;6.126;2023-04-24T08:37:57;7.93;;;6.17;;
15624;SDS011;7912;51.376;6.126;2023-04-24T08:40:27;6.37;;;5.70;;
15624;SDS011;7912;51.376;6.126;2023-04-24T08:43:02;6.60;;;5.90;;
15624;SDS011;7912;51.376;6.126;2023-04-24T08:45:33;7.60;;;5.57;;
15624;SDS011;7912;51.376;6.126;2023-04-24T08:48:01;8.07;;;6.30;;
15624;SDS011;7912;51.376;6.126;2023-04-24T08:50:51;6.27;;;5.27;;
15624;SDS011;7912;51.376;6.126;2023-04-24T08:53:19;7.73;;;5.07;;
15624;SDS011;7912;51.376;6.126;2023-04-24T08:55:47;8.77;;;5.40;;
15624;SDS011;7912;51.376;6.126;2023-04-24T08:58:24;6.50;;;5.03;;
15624;SDS011;7912;51.376;6.126;2023-04-24T09:00:56;7.50;;;5.13;;
15624;SDS011;7912;51.376;6.126;2023-04-24T09:03:27;7.87;;;4.83;;
15624;SDS011;7912;51.376;6.126;2023-04-24T09:05:57;9.53;;;5.50;;
15624;SDS011;7912;51.376;6.126;2023-04-24T09:08:27;8.27;;;4.63;;
15624;SDS011;7912;51.376;6.126;2023-04-24T09:11:06;7.43;;;5.30;;
15624;SDS011;7912;51.376;6.126;2023-04-24T09:13:37;7.23;;;5.20;;
15624;SDS011;7912;51.376;6.126;2023-04-24T09:16:06;7.17;;;5.33;;
15624;SDS011;7912;51.376;6.126;2023-04-24T09:18:36;10.10;;;5.47;;
15624;SDS011;7912;51.376;6.126;2023-04-24T09:21:06;12.97;;;6.07;;
15624;SDS011;7912;51.376;6.126;2023-04-24T09:23:35;9.00;;;6.13;;
15624;SDS011;7912;51.376;6.126;2023-04-24T09:26:03;9.90;;;6.00;;
15624;SDS011;7912;51.376;6.126;2023-04-24T09:28:37;8.70;;;6.00;;
15624;SDS011;7912;51.376;6.126;2023-04-24T09:31:13;10.07;;;5.97;;
15624;SDS011;7912;51.376;6.126;2023-04-24T09:36:31;8.83;;;5.60;;
15624;SDS011;7912;51.376;6.126;2023-04-24T09:39:07;9.57;;;5.90;;
15624;SDS011;7912;51.376;6.126;2023-04-24T09:41:44;6.83;;;5.87;;
15624;SDS011;7912;51.376;6.126;2023-04-24T09:44:24;9.27;;;5.87;;
15624;SDS011;7912;51.376;6.126;2023-04-24T09:46:58;10.27;;;5.60;;
15624;SDS011;7912;51.376;6.126;2023-04-24T09:49:30;8.17;;;5.87;;
15624;SDS011;7912;51.376;6.126;2023-04-24T09:52:04;9.93;;;5.97;;
15624;SDS011;7912;51.376;6.126;2023-04-24T09:54:39;7.63;;;5.57;;
15624;SDS011;7912;51.376;6.126;2023-04-24T09:57:07;8.83;;;6.07;;
15624;SDS011;7912;51.376;6.126;2023-04-24T09:59:42;8.70;;;5.50;;
15624;SDS011;7912;51.376;6.126;2023-04-24T10:02:21;8.50;;;5.30;;
15624;SDS011;7912;51.376;6.126;2023-04-24T10:04:57;9.33;;;5.27;;
15624;SDS011;7912;51.376;6.126;2023-04-24T10:07:28;8.13;;;4.57;;
15624;SDS011;7912;51.376;6.126;2023-04-24T10:09:59;9.20;;;5.20;;
15624;SDS011;7912;51.376;6.126;2023-04-24T10:12:27;8.17;;;4.50;;
15624;SDS011;7912;51.376;6.126;2023-04-24T10:14:56;9.30;;;5.00;;
15624;SDS011;7912;51.376;6.126;2023-04-24T10:17:26;8.97;;;5.20;;
15624;SDS011;7912;51.376;6.126;2023-04-24T10:19:55;9.00;;;4.70;;
15624;SDS011;7912;51.376;6.126;2023-04-24T10:22:26;8.10;;;4.83;;
15624;SDS011;7912;51.376;6.126;2023-04-24T10:24:56;7.03;;;4.30;;
15624;SDS011;7912;51.376;6.126;2023-04-24T10:27:26;7.47;;;4.03;;
15624;SDS011;7912;51.376;6.126;2023-04-24T10:29:54;9.90;;;4.07;;
15624;SDS011;7912;51.376;6.126;2023-04-24T10:32:22;10.13;;;4.23;;
15624;SDS011;7912;51.376;6.126;2023-04-24T10:37:46;8.43;;;3.60;;
15624;SDS011;7912;51.376;6.126;2023-04-24T10:40:27;7.47;;;3.60;;
15624;SDS011;7912;51.376;6.126;2023-04-24T10:43:01;7.80;;;3.60;;
15624;SDS011;7912;51.376;6.126;2023-04-24T10:49:44;9.00;;;3.27;;
15624;SDS011;7912;51.376;6.126;2023-04-24T10:52:15;5.87;;;3.13;;
15624;SDS011;7912;51.376;6.126;2023-04-24T10:54:46;5.10;;;2.80;;
15624;SDS011;7912;51.376;6.126;2023-04-24T10:59:48;5.80;;;2.70;;
15624;SDS011;7912;51.376;6.126;2023-04-24T11:02:18;7.17;;;2.87;;
15624;SDS011;7912;51.376;6.126;2023-04-24T11:05:07;5.03;;;3.10;;
15624;SDS011;7912;51.376;6.126;2023-04-24T11:10:43;6.37;;;2.67;;
15624;SDS011;7912;51.376;6.126;2023-04-24T11:17:39;5.43;;;2.70;;
15624;SDS011;7912;51.376;6.126;2023-04-24T11:20:10;5.87;;;3.00;;
15624;SDS011;7912;51.376;6.126;2023-04-24T11:22:54;6.20;;;3.20;;
15624;SDS011;7912;51.376;6.126;2023-04-24T11:25:24;3.67;;;2.73;;
15624;SDS011;7912;51.376;6.126;2023-04-24T11:27:52;6.63;;;2.90;;
15624;SDS011;7912;51.376;6.126;2023-04-24T11:30:31;4.80;;;2.50;;
15624;SDS011;7912;51.376;6.126;2023-04-24T11:33:03;5.43;;;2.37;;
15624;SDS011;7912;51.376;6.126;2023-04-24T11:35:35;6.30;;;2.43;;
15624;SDS011;7912;51.376;6.126;2023-04-24T11:38:07;4.03;;;2.47;;
15624;SDS011;7912;51.376;6.126;2023-04-24T11:40:39;5.07;;;2.53;;
15624;SDS011;7912;51.376;6.126;2023-04-24T11:43:07;6.07;;;2.40;;
15624;SDS011;7912;51.376;6.126;2023-04-24T11:45:36;5.97;;;2.57;;
15624;SDS011;7912;51.376;6.126;2023-04-24T11:48:03;4.57;;;2.03;;
15624;SDS011;7912;51.376;6.126;2023-04-24T11:50:31;3.07;;;2.00;;
15624;SDS011;7912;51.376;6.126;2023-04-24T11:52:58;3.60;;;1.90;;
15624;SDS011;7912;51.376;6.126;2023-04-24T11:55:28;3.37;;;2.20;;
15624;SDS011;7912;51.376;6.126;2023-04-24T11:57:57;3.70;;;2.20;;
15624;SDS011;7912;51.376;6.126;2023-04-24T12:00:27;7.77;;;2.40;;
15624;SDS011;7912;51.376;6.126;2023-04-24T12:03:12;3.40;;;2.10;;
15624;SDS011;7912;51.376;6.126;2023-04-24T12:05:40;4.77;;;1.63;;
15624;SDS011;7912;51.376;6.126;2023-04-24T12:08:08;2.93;;;1.70;;
15624;SDS011;7912;51.376;6.126;2023-04-24T12:10:36;2.60;;;1.43;;
15624;SDS011;7912;51.376;6.126;2023-04-24T12:15:52;5.87;;;3.30;;
15624;SDS011;7912;51.376;6.126;2023-04-24T12:18:23;2.93;;;1.90;;
15624;SDS011;7912;51.376;6.126;2023-04-24T12:20:51;3.13;;;1.60;;
15624;SDS011;7912;51.376;6.126;2023-04-24T12:26:20;3.30;;;2.00;;
15624;SDS011;7912;51.376;6.126;2023-04-24T12:28:49;4.53;;;2.47;;
15624;SDS011;7912;51.376;6.126;2023-04-24T12:31:16;3.57;;;1.80;;
15624;SDS011;7912;51.376;6.126;2023-04-24T12:33:44;2.43;;;1.53;;
15624;SDS011;7912;51.376;6.126;2023-04-24T12:36:12;2.43;;;1.30;;
15624;SDS011;7912;51.376;6.126;2023-04-24T12:38:43;2.40;;;1.63;;
15624;SDS011;7912;51.376;6.126;2023-04-24T12:41:13;3.03;;;1.60;;
15624;SDS011;7912;51.376;6.126;2023-04-24T12:43:51;2.97;;;1.90;;
15624;SDS011;7912;51.376;6.126;2023-04-24T12:46:20;3.40;;;2.13;;
15624;SDS011;7912;51.376;6.126;2023-04-24T12:48:48;1.80;;;1.30;;
15624;SDS011;7912;51.376;6.126;2023-04-24T12:51:15;2.23;;;1.27;;
15624;SDS011;7912;51.376;6.126;2023-04-24T12:53:43;2.73;;;1.70;;
15624;SDS011;7912;51.376;6.126;2023-04-24T12:56:11;2.00;;;1.10;;
15624;SDS011;7912;51.376;6.126;2023-04-24T12:58:38;2.80;;;1.40;;
15624;SDS011;7912;51.376;6.126;2023-04-24T13:01:06;2.43;;;1.20;;
15624;SDS011;7912;51.376;6.126;2023-04-24T13:03:33;2.57;;;1.33;;
15624;SDS011;7912;51.376;6.126;2023-04-24T13:06:02;2.67;;;1.33;;
15624;SDS011;7912;51.376;6.126;2023-04-24T13:08:31;1.70;;;1.10;;
15624;SDS011;7912;51.376;6.126;2023-04-24T13:10:59;2.07;;;1.40;;
15624;SDS011;7912;51.376;6.126;2023-04-24T13:13:27;1.90;;;1.17;;
15624;SDS011;7912;51.376;6.126;2023-04-24T13:15:54;1.83;;;1.20;;
15624;SDS011;7912;51.376;6.126;2023-04-24T13:18:22;1.70;;;1.17;;
15624;SDS011;7912;51.376;6.126;2023-04-24T13:20:49;2.23;;;1.30;;
15624;SDS011;7912;51.376;6.126;2023-04-24T13:23:17;1.47;;;1.23;;
15624;SDS011;7912;51.376;6.126;2023-04-24T13:25:45;3.10;;;1.40;;
15624;SDS011;7912;51.376;6.126;2023-04-24T13:28:13;2.10;;;1.00;;
15624;SDS011;7912;51.376;6.126;2023-04-24T13:30:41;1.60;;;1.20;;
15624;SDS011;7912;51.376;6.126;2023-04-24T13:33:14;1.40;;;1.20;;
15624;SDS011;7912;51.376;6.126;2023-04-24T13:35:42;1.60;;;1.10;;
15624;SDS011;7912;51.376;6.126;2023-04-24T13:38:12;3.53;;;1.30;;
15624;SDS011;7912;51.376;6.126;2023-04-24T13:40:39;1.97;;;1.10;;
15624;SDS011;7912;51.376;6.126;2023-04-24T13:43:07;1.73;;;1.10;;
15624;SDS011;7912;51.376;6.126;2023-04-24T13:45:35;2.33;;;1.10;;
15624;SDS011;7912;51.376;6.126;2023-04-24T13:48:05;2.37;;;1.10;;
15624;SDS011;7912;51.376;6.126;2023-04-24T13:53:19;1.67;;;1.07;;
15624;SDS011;7912;51.376;6.126;2023-04-24T13:55:46;2.23;;;1.30;;
15624;SDS011;7912;51.376;6.126;2023-04-24T13:58:14;1.33;;;1.17;;
15624;SDS011;7912;51.376;6.126;2023-04-24T14:00:42;2.80;;;1.30;;
15624;SDS011;7912;51.376;6.126;2023-04-24T14:03:10;1.70;;;1.30;;
15624;SDS011;7912;51.376;6.126;2023-04-24T14:05:38;2.50;;;1.40;;
15624;SDS011;7912;51.376;6.126;2023-04-24T14:08:05;2.33;;;1.40;;
15624;SDS011;7912;51.376;6.126;2023-04-24T14:10:33;2.63;;;1.50;;
15624;SDS011;7912;51.376;6.126;2023-04-24T14:13:00;2.20;;;1.33;;
15624;SDS011;7912;51.376;6.126;2023-04-24T14:15:28;2.20;;;1.40;;
15624;SDS011;7912;51.376;6.126;2023-04-24T14:17:56;2.30;;;1.30;;
15624;SDS011;7912;51.376;6.126;2023-04-24T14:20:24;2.50;;;1.60;;
15624;SDS011;7912;51.376;6.126;2023-04-24T14:22:52;2.80;;;1.60;;
15624;SDS011;7912;51.376;6.126;2023-04-24T14:25:19;2.93;;;1.60;;
15624;SDS011;7912;51.376;6.126;2023-04-24T14:27:49;3.53;;;1.80;;
15624;SDS011;7912;51.376;6.126;2023-04-24T14:30:16;2.67;;;1.80;;
15624;SDS011;7912;51.376;6.126;2023-04-24T14:36:03;2.20;;;1.73;;
15624;SDS011;7912;51.376;6.126;2023-04-24T14:38:32;4.93;;;1.83;;
15624;SDS011;7912;51.376;6.126;2023-04-24T14:40:59;4.20;;;1.70;;
15624;SDS011;7912;51.376;6.126;2023-04-24T14:43:30;2.50;;;1.60;;
15624;SDS011;7912;51.376;6.126;2023-04-24T14:45:58;2.00;;;1.50;;
15624;SDS011;7912;51.376;6.126;2023-04-24T14:48:26;3.27;;;1.80;;
15624;SDS011;7912;51.376;6.126;2023-04-24T14:50:53;2.30;;;1.60;;
15624;SDS011;7912;51.376;6.126;2023-04-24T14:53:21;3.50;;;1.80;;
15624;SDS011;7912;51.376;6.126;2023-04-24T14:55:48;2.40;;;1.67;;
15624;SDS011;7912;51.376;6.126;2023-04-24T14:58:15;3.97;;;1.73;;
15624;SDS011;7912;51.376;6.126;2023-04-24T15:00:43;2.33;;;1.70;;
15624;SDS011;7912;51.376;6.126;2023-04-24T15:03:10;3.90;;;1.60;;
15624;SDS011;7912;51.376;6.126;2023-04-24T15:05:38;4.03;;;1.70;;
15624;SDS011;7912;51.376;6.126;2023-04-24T15:08:05;4.30;;;1.93;;
15624;SDS011;7912;51.376;6.126;2023-04-24T15:10:35;2.83;;;1.83;;
15624;SDS011;7912;51.376;6.126;2023-04-24T15:13:05;4.03;;;2.07;;
15624;SDS011;7912;51.376;6.126;2023-04-24T15:15:34;2.93;;;1.80;;
15624;SDS011;7912;51.376;6.126;2023-04-24T15:18:01;2.20;;;1.60;;
15624;SDS011;7912;51.376;6.126;2023-04-24T15:20:29;2.63;;;1.63;;
15624;SDS011;7912;51.376;6.126;2023-04-24T15:22:56;3.80;;;1.83;;
15624;SDS011;7912;51.376;6.126;2023-04-24T15:25:27;4.00;;;2.03;;
15624;SDS011;7912;51.376;6.126;2023-04-24T15:27:54;2.27;;;1.73;;
15624;SDS011;7912;51.376;6.126;2023-04-24T15:30:21;4.50;;;1.90;;
15624;SDS011;7912;51.376;6.126;2023-04-24T15:32:49;2.57;;;1.77;;
15624;SDS011;7912;51.376;6.126;2023-04-24T15:35:16;3.30;;;1.43;;
15624;SDS011;7912;51.376;6.126;2023-04-24T15:37:44;3.73;;;1.73;;
15624;SDS011;7912;51.376;6.126;2023-04-24T15:40:12;2.63;;;1.60;;
15624;SDS011;7912;51.376;6.126;2023-04-24T15:42:42;2.70;;;1.70;;
15624;SDS011;7912;51.376;6.126;2023-04-24T15:45:12;1.83;;;1.40;;
15624;SDS011;7912;51.376;6.126;2023-04-24T15:47:39;2.60;;;1.60;;
15624;SDS011;7912;51.376;6.126;2023-04-24T15:50:07;3.43;;;1.87;;
15624;SDS011;7912;51.376;6.126;2023-04-24T15:52:39;2.40;;;1.57;;
15624;SDS011;7912;51.376;6.126;2023-04-24T15:55:06;3.40;;;1.80;;
15624;SDS011;7912;51.376;6.126;2023-04-24T16:00:42;1.87;;;1.57;;
15624;SDS011;7912;51.376;6.126;2023-04-24T16:03:11;3.57;;;1.80;;
15624;SDS011;7912;51.376;6.126;2023-04-24T16:05:43;3.77;;;2.30;;
15624;SDS011;7912;51.376;6.126;2023-04-24T16:08:10;3.13;;;1.47;;
15624;SDS011;7912;51.376;6.126;2023-04-24T16:10:40;1.50;;;1.40;;
15624;SDS011;7912;51.376;6.126;2023-04-24T16:13:08;2.93;;;1.30;;
15624;SDS011;7912;51.376;6.126;2023-04-24T16:15:36;1.40;;;1.23;;
15624;SDS011;7912;51.376;6.126;2023-04-24T16:18:04;1.77;;;1.30;;
15624;SDS011;7912;51.376;6.126;2023-04-24T16:20:32;2.80;;;1.60;;
15624;SDS011;7912;51.376;6.126;2023-04-24T16:22:59;2.53;;;1.70;;